createdAt,value
2023-04-18T00:00:40.631Z,8.92
2023-04-18T00:03:09.589Z,8.88
2023-04-18T00:05:40.196Z,8.84
2023-04-18T00:08:09.698Z,8.80
2023-04-18T00:10:38.179Z,8.75
2023-04-18T00:13:13.259Z,8.74
2023-04-18T00:15:44.057Z,8.74
2023-04-18T00:18:17.237Z,8.69
2023-04-18T00:20:48.487Z,8.67
2023-04-18T00:23:23.796Z,8.63
2023-04-18T00:25:52.845Z,8.58
2023-04-18T00:28:26.336Z,8.59
2023-04-18T00:30:57.918Z,8.59
2023-04-18T00:33:25.996Z,8.58
2023-04-18T00:35:55.325Z,8.55
2023-04-18T00:38:23.818Z,8.57
2023-04-18T00:40:52.318Z,8.60
2023-04-18T00:43:26.892Z,8.61
2023-04-18T00:46:02.265Z,8.65
2023-04-18T00:48:31.621Z,8.66
2023-04-18T00:51:04.913Z,8.67
2023-04-18T00:53:35.710Z,8.70
2023-04-18T00:56:05.165Z,8.73
2023-04-18T00:58:33.656Z,8.74
2023-04-18T01:01:06.111Z,8.76
2023-04-18T01:03:34.757Z,8.79
2023-04-18T01:06:05.936Z,8.81
2023-04-18T01:08:37.816Z,8.78
2023-04-18T01:11:06.017Z,8.78
2023-04-18T01:13:36.572Z,8.75
2023-04-18T01:16:07.839Z,8.71
2023-04-18T01:18:37.370Z,8.68
2023-04-18T01:21:10.141Z,8.63
2023-04-18T01:23:43.037Z,8.57
2023-04-18T01:26:16.304Z,8.53
2023-04-18T01:28:44.573Z,8.51
2023-04-18T01:31:13.366Z,8.49
2023-04-18T01:33:42.739Z,8.44
2023-04-18T01:36:11.283Z,8.36
2023-04-18T01:38:40.475Z,8.33
2023-04-18T01:41:08.838Z,8.28
2023-04-18T01:43:39.772Z,8.23
2023-04-18T01:46:08.155Z,8.22
2023-04-18T01:48:37.356Z,8.18
2023-04-18T01:51:06.646Z,8.15
2023-04-18T01:53:39.082Z,8.08
2023-04-18T01:56:12.446Z,8.05
2023-04-18T01:58:44.156Z,8.02
2023-04-18T02:01:18.834Z,8.02
2023-04-18T02:03:51.455Z,8.02
2023-04-18T02:06:20.942Z,8.00
2023-04-18T02:08:52.350Z,8.00
2023-04-18T02:11:21.440Z,7.96
2023-04-18T02:13:53.444Z,7.90
2023-04-18T02:16:25.137Z,7.86
2023-04-18T02:18:53.985Z,7.86
2023-04-18T02:21:25.332Z,7.83
2023-04-18T02:23:53.516Z,7.80
2023-04-18T02:26:23.416Z,7.76
2023-04-18T02:28:55.250Z,7.76
2023-04-18T02:31:23.734Z,7.75
2023-04-18T02:33:54.020Z,7.67
2023-04-18T02:36:27.494Z,7.70
2023-04-18T02:38:56.250Z,7.67
2023-04-18T02:41:24.377Z,7.62
2023-04-18T02:43:52.553Z,7.63
2023-04-18T02:46:23.867Z,7.63
2023-04-18T02:48:53.271Z,7.59
2023-04-18T02:51:26.757Z,7.60
2023-04-18T02:53:56.402Z,7.61
2023-04-18T02:56:28.835Z,7.55
2023-04-18T02:59:19.527Z,7.53
2023-04-18T03:02:10.415Z,7.54
2023-04-18T03:04:44.692Z,7.52
2023-04-18T03:07:20.199Z,7.52
2023-04-18T03:09:50.656Z,7.50
2023-04-18T03:12:24.629Z,7.51
2023-04-18T03:14:53.176Z,7.48
2023-04-18T03:17:24.864Z,7.50
2023-04-18T03:19:55.780Z,7.49
2023-04-18T03:22:24.689Z,7.50
2023-04-18T03:25:00.081Z,7.46
2023-04-18T03:27:48.522Z,7.45
2023-04-18T03:30:19.995Z,7.44
2023-04-18T03:32:57.110Z,7.41
2023-04-18T03:35:25.346Z,7.38
2023-04-18T03:37:55.382Z,7.32
2023-04-18T03:40:27.683Z,7.25
2023-04-18T03:43:00.863Z,7.22
2023-04-18T03:45:31.366Z,7.20
2023-04-18T03:48:02.634Z,7.14
2023-04-18T03:50:34.970Z,7.12
2023-04-18T03:53:04.661Z,7.13
2023-04-18T03:55:36.414Z,7.13
2023-04-18T03:58:05.700Z,7.11
2023-04-18T04:00:34.646Z,7.14
2023-04-18T04:03:09.764Z,7.15
2023-04-18T04:05:37.892Z,7.16
2023-04-18T04:08:06.726Z,7.15
2023-04-18T04:10:38.637Z,7.13
2023-04-18T04:13:06.569Z,7.10
2023-04-18T04:15:39.489Z,7.11
2023-04-18T04:18:13.633Z,7.11
2023-04-18T04:20:54.412Z,7.11
2023-04-18T04:23:35.887Z,7.09
2023-04-18T04:26:04.717Z,7.10
2023-04-18T04:28:46.762Z,7.08
2023-04-18T04:31:18.802Z,7.10
2023-04-18T04:33:53.378Z,7.12
2023-04-18T04:36:25.034Z,7.17
2023-04-18T04:38:54.644Z,7.21
2023-04-18T04:41:32.420Z,7.23
2023-04-18T04:44:05.278Z,7.27
2023-04-18T04:46:40.687Z,7.33
2023-04-18T04:49:18.752Z,7.41
2023-04-18T04:51:49.711Z,7.45
2023-04-18T04:54:18.503Z,7.48
2023-04-18T04:56:46.630Z,7.51
2023-04-18T04:59:15.835Z,7.58
2023-04-18T05:01:47.428Z,7.66
2023-04-18T05:04:18.615Z,7.71
2023-04-18T05:06:48.424Z,7.77
2023-04-18T05:09:20.243Z,7.83
2023-04-18T05:11:52.416Z,7.90
2023-04-18T05:14:22.684Z,8.00
2023-04-18T05:16:53.573Z,8.04
2023-04-18T05:19:21.691Z,8.09
2023-04-18T05:21:51.672Z,8.16
2023-04-18T05:24:20.659Z,8.21
2023-04-18T05:26:48.672Z,8.26
2023-04-18T05:29:16.574Z,8.30
2023-04-18T05:31:44.916Z,8.31
2023-04-18T05:34:13.542Z,8.37
2023-04-18T05:36:42.108Z,8.42
2023-04-18T05:39:12.265Z,8.49
2023-04-18T05:41:43.710Z,8.52
2023-04-18T05:44:12.637Z,8.55
2023-04-18T05:46:41.337Z,8.60
2023-04-18T05:49:12.220Z,8.68
2023-04-18T05:51:42.889Z,8.75
2023-04-18T05:54:14.586Z,8.76
2023-04-18T05:56:44.674Z,8.84
2023-04-18T05:59:12.903Z,8.88
2023-04-18T06:01:41.965Z,8.87
2023-04-18T06:04:11.966Z,8.89
2023-04-18T06:06:41.534Z,8.88
2023-04-18T06:09:11.333Z,8.89
2023-04-18T06:11:42.822Z,8.95
2023-04-18T06:14:10.964Z,8.96
2023-04-18T06:16:40.183Z,8.99
2023-04-18T06:19:10.810Z,9.04
2023-04-18T06:21:42.807Z,9.09
2023-04-18T06:24:14.361Z,9.13
2023-04-18T06:26:47.449Z,9.16
2023-04-18T06:29:15.540Z,9.22
2023-04-18T06:31:46.346Z,9.23
2023-04-18T06:34:15.304Z,9.30
2023-04-18T06:36:44.240Z,9.38
2023-04-18T06:39:13.037Z,9.43
2023-04-18T06:41:48.776Z,9.47
2023-04-18T06:44:32.168Z,9.51
2023-04-18T06:47:01.281Z,9.58
2023-04-18T06:49:32.759Z,9.65
2023-04-18T06:52:02.871Z,9.68
2023-04-18T06:54:30.989Z,9.77
2023-04-18T06:57:00.640Z,9.88
2023-04-18T06:59:28.561Z,10.04
2023-04-18T07:01:59.904Z,10.16
2023-04-18T07:04:30.174Z,10.31
2023-04-18T07:07:03.041Z,10.35
2023-04-18T07:09:35.472Z,10.42
2023-04-18T07:12:06.701Z,10.51
2023-04-18T07:14:34.970Z,10.65
2023-04-18T07:17:03.165Z,10.77
2023-04-18T07:19:34.927Z,10.89
2023-04-18T07:22:08.795Z,11.04
2023-04-18T07:24:40.867Z,11.19
2023-04-18T07:27:10.316Z,11.39
2023-04-18T07:29:42.990Z,11.60
2023-04-18T07:32:21.352Z,11.77
2023-04-18T07:34:57.251Z,11.94
2023-04-18T07:37:28.008Z,12.00
2023-04-18T07:39:56.790Z,12.03
2023-04-18T07:42:26.426Z,12.10
2023-04-18T07:44:59.138Z,12.15
2023-04-18T07:47:30.582Z,12.15
2023-04-18T07:50:04.270Z,12.09
2023-04-18T07:52:33.192Z,12.06
2023-04-18T07:55:05.484Z,12.02
2023-04-18T07:57:35.037Z,11.97
2023-04-18T08:00:04.922Z,11.90
2023-04-18T08:02:41.734Z,11.97
2023-04-18T08:05:12.053Z,12.05
2023-04-18T08:07:41.852Z,12.11
2023-04-18T08:10:12.641Z,12.13
2023-04-18T08:12:43.114Z,12.25
2023-04-18T08:15:12.238Z,12.34
2023-04-18T08:17:42.736Z,12.40
2023-04-18T08:20:15.681Z,12.42
2023-04-18T08:23:02.017Z,12.31
2023-04-18T08:25:36.742Z,12.32
2023-04-18T08:28:08.822Z,12.45
2023-04-18T08:30:39.795Z,12.56
2023-04-18T08:33:07.817Z,12.67
2023-04-18T08:35:38.498Z,12.80
2023-04-18T08:38:09.480Z,12.99
2023-04-18T08:40:39.026Z,13.16
2023-04-18T08:43:15.145Z,13.19
2023-04-18T08:45:44.405Z,13.39
2023-04-18T08:48:15.703Z,13.82
2023-04-18T08:50:45.216Z,14.06
2023-04-18T08:53:14.881Z,14.08
2023-04-18T08:55:44.461Z,14.16
2023-04-18T08:58:27.320Z,14.22
2023-04-18T09:00:56.282Z,14.25
2023-04-18T09:03:40.947Z,14.33
2023-04-18T09:06:12.454Z,14.35
2023-04-18T09:08:46.656Z,14.49
2023-04-18T09:11:22.632Z,14.67
2023-04-18T09:13:59.937Z,14.90
2023-04-18T09:16:29.479Z,15.05
2023-04-18T09:19:18.979Z,15.22
2023-04-18T09:21:59.077Z,15.41
2023-04-18T09:24:28.641Z,15.42
2023-04-18T09:26:59.693Z,15.47
2023-04-18T09:32:29.097Z,15.47
2023-04-18T09:35:00.599Z,15.60
2023-04-18T09:37:31.102Z,15.74
2023-04-18T09:39:58.999Z,15.89
2023-04-18T09:42:28.773Z,15.89
2023-04-18T09:45:04.892Z,16.00
2023-04-18T09:47:36.781Z,16.14
2023-04-18T09:50:09.924Z,15.93
2023-04-18T09:52:39.669Z,15.90
2023-04-18T09:55:11.701Z,15.89
2023-04-18T09:57:45.239Z,15.84
2023-04-18T10:00:24.584Z,15.63
2023-04-18T10:02:59.335Z,15.51
2023-04-18T10:05:29.530Z,15.54
2023-04-18T10:07:58.326Z,15.56
2023-04-18T10:10:27.091Z,15.53
2023-04-18T10:12:56.738Z,15.42
2023-04-18T10:15:26.408Z,15.39
2023-04-18T10:18:04.445Z,15.38
2023-04-18T10:20:35.738Z,15.47
2023-04-18T10:23:49.185Z,15.65
2023-04-18T10:26:19.626Z,15.77
2023-04-18T10:28:53.756Z,15.93
2023-04-18T10:31:27.229Z,16.15
2023-04-18T10:36:30.286Z,16.58
2023-04-18T10:39:02.875Z,16.86
2023-04-18T10:41:32.817Z,17.21
2023-04-18T10:44:22.853Z,17.40
2023-04-18T10:47:31.147Z,17.62
2023-04-18T10:50:06.235Z,17.92
2023-04-18T10:52:34.999Z,18.02
2023-04-18T10:55:10.229Z,18.04
2023-04-18T10:57:42.468Z,18.06
2023-04-18T11:00:13.795Z,17.94
2023-04-18T11:02:48.737Z,18.07
2023-04-18T11:05:22.708Z,18.17
2023-04-18T11:07:54.217Z,18.05
2023-04-18T11:10:25.531Z,17.99
2023-04-18T11:12:54.658Z,17.82
2023-04-18T11:15:25.521Z,17.76
2023-04-18T11:17:58.834Z,17.73
2023-04-18T11:20:29.462Z,17.75
2023-04-18T11:22:59.082Z,17.77
2023-04-18T11:25:29.699Z,17.73
2023-04-18T11:28:00.834Z,17.79
2023-04-18T11:30:31.346Z,17.84
2023-04-18T11:32:59.371Z,17.93
2023-04-18T11:35:28.912Z,17.87
2023-04-18T11:37:56.950Z,17.97
2023-04-18T11:40:24.891Z,17.98
2023-04-18T11:42:55.451Z,18.00
2023-04-18T11:45:23.385Z,18.03
2023-04-18T11:47:58.118Z,18.00
2023-04-18T11:50:28.489Z,17.98
2023-04-18T11:52:57.316Z,18.20
2023-04-18T11:55:27.158Z,18.50
2023-04-18T11:57:56.860Z,18.54
2023-04-18T12:00:34.153Z,18.60
2023-04-18T12:03:05.243Z,18.34
2023-04-18T12:05:37.628Z,18.32
2023-04-18T12:08:11.397Z,18.19
2023-04-18T12:10:46.137Z,18.16
2023-04-18T12:13:14.541Z,18.10
2023-04-18T12:15:46.262Z,18.08
2023-04-18T12:18:19.759Z,17.97
2023-04-18T12:20:54.126Z,17.87
2023-04-18T12:23:34.716Z,17.97
2023-04-18T12:26:04.516Z,17.94
2023-04-18T12:28:34.000Z,17.92
2023-04-18T12:31:07.276Z,18.34
2023-04-18T12:33:36.630Z,18.72
2023-04-18T12:36:08.533Z,18.79
2023-04-18T12:38:37.387Z,18.88
2023-04-18T12:41:05.619Z,18.69
2023-04-18T12:43:33.495Z,18.46
2023-04-18T12:46:01.743Z,18.31
2023-04-18T12:48:29.689Z,18.34
2023-04-18T12:50:57.777Z,18.11
2023-04-18T12:53:27.304Z,18.03
2023-04-18T12:55:55.235Z,17.96
2023-04-18T12:58:23.503Z,17.88
2023-04-18T13:00:51.418Z,17.60
2023-04-18T13:03:23.374Z,17.53
2023-04-18T13:05:53.971Z,17.55
2023-04-18T13:08:22.904Z,17.41
2023-04-18T13:10:52.431Z,17.36
2023-04-18T13:13:20.804Z,17.26
2023-04-18T13:15:51.812Z,17.20
2023-04-18T13:18:21.006Z,17.12
2023-04-18T13:20:49.563Z,17.05
2023-04-18T13:23:19.086Z,17.02
2023-04-18T13:25:47.649Z,16.96
2023-04-18T13:28:18.330Z,16.97
2023-04-18T13:30:47.814Z,16.96
2023-04-18T13:33:15.847Z,17.19
2023-04-18T13:35:47.181Z,17.53
2023-04-18T13:38:15.465Z,17.87
2023-04-18T13:40:43.300Z,18.26
2023-04-18T13:43:14.749Z,18.50
2023-04-18T13:45:44.070Z,18.52
2023-04-18T13:48:13.882Z,18.39
2023-04-18T13:50:43.934Z,18.43
2023-04-18T13:53:12.318Z,18.33
2023-04-18T13:55:42.733Z,18.20
2023-04-18T13:58:10.977Z,18.16
2023-04-18T14:00:38.864Z,18.11
2023-04-18T14:03:08.295Z,17.96
2023-04-18T14:05:36.657Z,17.76
2023-04-18T14:08:06.067Z,17.53
2023-04-18T14:10:34.427Z,17.33
2023-04-18T14:13:02.749Z,17.36
2023-04-18T14:15:32.462Z,17.52
2023-04-18T14:18:03.017Z,17.57
2023-04-18T14:20:34.724Z,17.69
2023-04-18T14:23:05.342Z,17.79
2023-04-18T14:25:34.690Z,17.85
2023-04-18T14:28:09.332Z,18.19
2023-04-18T14:30:41.056Z,18.64
2023-04-18T14:33:11.030Z,18.97
2023-04-18T14:35:40.737Z,18.94
2023-04-18T14:38:08.641Z,18.76
2023-04-18T14:40:39.379Z,18.70
2023-04-18T14:43:07.467Z,18.66
2023-04-18T14:45:38.938Z,18.61
2023-04-18T14:48:08.838Z,18.57
2023-04-18T14:50:39.026Z,18.58
2023-04-18T14:53:09.091Z,18.81
2023-04-18T14:55:37.546Z,19.08
2023-04-18T14:58:05.496Z,19.29
2023-04-18T15:00:33.441Z,19.25
2023-04-18T15:03:05.486Z,19.42
2023-04-18T15:05:35.202Z,19.69
2023-04-18T15:08:04.451Z,20.17
2023-04-18T15:10:36.853Z,20.82
2023-04-18T15:13:05.878Z,21.40
2023-04-18T15:15:36.530Z,21.31
2023-04-18T15:18:05.721Z,20.95
2023-04-18T15:20:36.283Z,20.48
2023-04-18T15:23:04.599Z,20.24
2023-04-18T15:25:36.114Z,20.12
2023-04-18T15:28:07.035Z,19.81
2023-04-18T15:30:35.326Z,19.43
2023-04-18T15:33:04.750Z,19.40
2023-04-18T15:35:32.766Z,19.31
2023-04-18T15:38:01.031Z,19.33
2023-04-18T15:40:29.121Z,19.32
2023-04-18T15:42:59.524Z,19.06
2023-04-18T15:45:28.847Z,18.64
2023-04-18T15:47:57.507Z,18.52
2023-04-18T15:50:26.158Z,18.40
2023-04-18T15:52:54.886Z,18.29
2023-04-18T15:55:22.968Z,18.11
2023-04-18T15:57:50.907Z,17.94
2023-04-18T16:00:19.821Z,17.77
2023-04-18T16:02:49.438Z,17.67
2023-04-18T16:05:17.654Z,17.53
2023-04-18T16:07:46.598Z,17.43
2023-04-18T16:10:15.525Z,17.28
2023-04-18T16:12:43.734Z,17.21
2023-04-18T16:15:15.916Z,16.98
2023-04-18T16:17:44.221Z,16.79
2023-04-18T16:20:14.067Z,16.82
2023-04-18T16:22:46.078Z,16.85
2023-04-18T16:25:14.491Z,16.84
2023-04-18T16:27:42.946Z,16.77
2023-04-18T16:30:13.968Z,16.69
2023-04-18T16:32:41.916Z,16.52
2023-04-18T16:35:11.146Z,16.41
2023-04-18T16:37:41.665Z,16.25
2023-04-18T16:40:12.592Z,16.11
2023-04-18T16:42:40.994Z,15.95
2023-04-18T16:45:11.857Z,15.94
2023-04-18T16:47:40.191Z,15.60
2023-04-18T16:50:09.169Z,15.62
2023-04-18T16:52:37.087Z,15.58
2023-04-18T16:55:06.945Z,15.56
2023-04-18T16:57:34.889Z,15.50
2023-04-18T17:00:10.120Z,15.54
2023-04-18T17:02:43.187Z,15.50
2023-04-18T17:05:12.128Z,15.38
2023-04-18T17:07:43.304Z,15.24
2023-04-18T17:10:15.476Z,15.19
2023-04-18T17:12:45.738Z,15.13
2023-04-18T17:15:13.656Z,15.01
2023-04-18T17:17:41.580Z,14.92
2023-04-18T17:20:13.438Z,14.85
2023-04-18T17:22:41.372Z,14.81
2023-04-18T17:25:09.884Z,14.74
2023-04-18T17:27:42.779Z,14.67
2023-04-18T17:30:11.742Z,14.64
2023-04-18T17:32:42.995Z,14.53
2023-04-18T17:35:11.550Z,14.36
2023-04-18T17:37:40.987Z,14.29
2023-04-18T17:40:11.589Z,14.10
2023-04-18T17:42:41.054Z,14.09
2023-04-18T17:45:10.921Z,14.10
2023-04-18T17:47:38.814Z,14.10
2023-04-18T17:50:10.109Z,14.13
2023-04-18T17:52:37.924Z,14.08
2023-04-18T17:55:07.340Z,14.05
2023-04-18T17:57:35.632Z,13.99
2023-04-18T18:00:10.670Z,13.95
2023-04-18T18:02:43.216Z,13.93
2023-04-18T18:05:14.944Z,13.92
2023-04-18T18:07:47.346Z,13.89
2023-04-18T18:10:18.935Z,13.88
2023-04-18T18:12:47.038Z,13.86
2023-04-18T18:15:17.910Z,13.81
2023-04-18T18:17:50.708Z,13.80
2023-04-18T18:20:19.528Z,13.79
2023-04-18T18:22:48.841Z,13.75
2023-04-18T18:25:16.994Z,13.74
2023-04-18T18:27:47.481Z,13.73
2023-04-18T18:30:17.182Z,13.67
2023-04-18T18:32:45.944Z,13.65
2023-04-18T18:35:14.425Z,13.63
2023-04-18T18:37:42.541Z,13.63
2023-04-18T18:40:13.936Z,13.60
2023-04-18T18:42:42.408Z,13.58
2023-04-18T18:45:12.168Z,13.57
2023-04-18T18:47:41.781Z,13.54
2023-04-18T18:50:12.113Z,13.55
2023-04-18T18:52:43.056Z,13.56
2023-04-18T18:55:11.443Z,13.55
2023-04-18T18:57:39.555Z,13.49
2023-04-18T19:00:11.291Z,13.51
2023-04-18T19:02:41.948Z,13.48
2023-04-18T19:05:12.468Z,13.46
2023-04-18T19:07:44.039Z,13.45
2023-04-18T19:10:12.414Z,13.43
2023-04-18T19:12:40.480Z,13.44
2023-04-18T19:15:12.592Z,13.38
2023-04-18T19:17:42.032Z,13.38
2023-04-18T19:20:13.418Z,13.40
2023-04-18T19:22:41.863Z,13.38
2023-04-18T19:25:10.610Z,13.36
2023-04-18T19:27:38.457Z,13.29
2023-04-18T19:30:09.207Z,13.27
2023-04-18T19:32:37.706Z,13.29
2023-04-18T19:35:09.793Z,13.28
2023-04-18T19:37:39.015Z,13.28
2023-04-18T19:40:11.284Z,13.31
2023-04-18T19:42:39.378Z,13.31
2023-04-18T19:45:12.796Z,13.25
2023-04-18T19:47:43.896Z,13.25
2023-04-18T19:50:15.612Z,13.28
2023-04-18T19:52:45.435Z,13.31
2023-04-18T19:55:13.271Z,13.31
2023-04-18T19:57:42.133Z,13.32
2023-04-18T20:00:13.957Z,13.30
2023-04-18T20:02:43.597Z,13.30
2023-04-18T20:05:12.886Z,13.27
2023-04-18T20:07:45.983Z,13.26
2023-04-18T20:10:14.872Z,13.28
2023-04-18T20:12:43.095Z,13.30
2023-04-18T20:15:12.084Z,13.30
2023-04-18T20:17:40.006Z,13.26
2023-04-18T20:20:10.684Z,13.26
2023-04-18T20:22:40.288Z,13.27
2023-04-18T20:25:09.947Z,13.27
2023-04-18T20:27:37.825Z,13.24
2023-04-18T20:30:07.278Z,13.24
2023-04-18T20:32:37.509Z,13.24
2023-04-18T20:35:08.563Z,13.21
2023-04-18T20:37:36.465Z,13.19
2023-04-18T20:40:08.004Z,13.12
2023-04-18T20:42:38.896Z,13.13
2023-04-18T20:45:11.103Z,13.12
2023-04-18T20:47:41.499Z,13.11
2023-04-18T20:50:10.703Z,13.12
2023-04-18T20:52:38.516Z,13.10
2023-04-18T20:55:08.165Z,13.13
2023-04-18T20:57:39.279Z,13.12
2023-04-18T21:00:09.801Z,13.10
2023-04-18T21:02:42.039Z,13.10
2023-04-18T21:05:12.506Z,13.10
2023-04-18T21:07:44.100Z,13.10
2023-04-18T21:10:13.664Z,13.10
2023-04-18T21:12:43.155Z,13.11
2023-04-18T21:15:12.437Z,13.10
2023-04-18T21:17:42.920Z,13.05
2023-04-18T21:20:11.386Z,13.06
2023-04-18T21:22:39.286Z,13.03
2023-04-18T21:25:08.898Z,13.03
2023-04-18T21:27:38.566Z,13.02
2023-04-18T21:30:09.794Z,13.02
2023-04-18T21:32:37.883Z,12.98
2023-04-18T21:35:08.612Z,12.99
2023-04-18T21:37:38.820Z,12.99
2023-04-18T21:40:08.494Z,12.97
2023-04-18T21:42:38.169Z,12.95
2023-04-18T21:45:09.269Z,12.95
2023-04-18T21:47:38.699Z,12.93
2023-04-18T21:50:08.103Z,12.93
2023-04-18T21:52:35.934Z,12.93
2023-04-18T21:55:04.899Z,12.95
2023-04-18T21:57:32.935Z,12.98
2023-04-18T22:00:00.972Z,13.00
2023-04-18T22:02:30.435Z,12.95
2023-04-18T22:05:01.506Z,12.95
2023-04-18T22:07:29.929Z,12.94
2023-04-18T22:09:59.821Z,12.93
2023-04-18T22:12:28.094Z,12.91
2023-04-18T22:14:56.617Z,12.94
2023-04-18T22:17:24.690Z,12.92
2023-04-18T22:19:54.760Z,12.92
2023-04-18T22:22:25.391Z,12.90
2023-04-18T22:24:53.288Z,12.92
2023-04-18T22:27:23.713Z,12.92
2023-04-18T22:29:53.302Z,12.92
2023-04-18T22:32:21.329Z,12.90
2023-04-18T22:34:49.537Z,12.91
2023-04-18T22:37:19.001Z,12.94
2023-04-18T22:39:49.957Z,12.90
2023-04-18T22:42:18.870Z,12.89
2023-04-18T22:44:48.736Z,12.89
2023-04-18T22:47:16.838Z,12.88
2023-04-18T22:49:44.735Z,12.88
2023-04-18T22:52:14.160Z,12.87
2023-04-18T22:54:43.513Z,12.85
2023-04-18T22:57:14.778Z,12.84
2023-04-18T22:59:42.977Z,12.86
2023-04-18T23:02:14.301Z,12.83
2023-04-18T23:04:45.395Z,12.84
2023-04-18T23:07:13.408Z,12.84
2023-04-18T23:09:41.530Z,12.83
2023-04-18T23:12:10.891Z,12.83
2023-04-18T23:14:38.976Z,12.83
2023-04-18T23:17:06.969Z,12.85
2023-04-18T23:19:35.894Z,12.84
2023-04-18T23:22:04.381Z,12.82
2023-04-18T23:24:36.456Z,12.82
2023-04-18T23:27:04.543Z,12.80
2023-04-18T23:29:37.639Z,12.81
2023-04-18T23:32:06.545Z,12.81
2023-04-18T23:34:37.445Z,12.76
2023-04-18T23:37:05.772Z,12.76
2023-04-18T23:39:36.235Z,12.71
2023-04-18T23:42:04.195Z,12.64
2023-04-18T23:44:34.472Z,12.60
2023-04-18T23:47:02.417Z,12.53
2023-04-18T23:49:31.629Z,12.46
2023-04-18T23:51:59.461Z,12.42
2023-04-18T23:54:31.885Z,12.32
2023-04-18T23:56:59.835Z,12.32
2023-04-18T23:59:29.058Z,12.33
